Time;durP1;ratioP1;P1;durP2;ratioP2;P2;SDS_P1;SDS_P2;PMS_P1;PMS_P2;Temp;Humidity;BMP_temperature;BMP_pressure;BME280_temperature;BME280_humidity;BME280_pressure;Samples;Min_cycle;Max_cycle;Signal;HPM_P1;HPM_P2
2022/09/13 00:00:57;;;;;;;3.25;1.37;;;;;;;24.99;44.34;100391.05;1689465;83;21058;-86
2022/09/13 00:03:24;;;;;;;1.60;1.30;;;;;;;24.98;44.33;100392.23;1689200;83;21173;-86
2022/09/13 00:05:50;;;;;;;1.95;1.35;;;;;;;24.99;44.34;100395.22;1689413;83;21061;-86
2022/09/13 00:08:16;;;;;;;2.10;1.40;;;;;;;24.98;44.36;100396.41;1689305;83;21552;-86
2022/09/13 00:10:43;;;;;;;2.22;1.40;;;;;;;24.99;44.36;100386.09;1689253;85;21066;-86
2022/09/13 00:13:10;;;;;;;1.47;1.20;;;;;;;24.98;44.37;100377.51;1695237;83;21106;-86
2022/09/13 00:15:36;;;;;;;1.92;1.25;;;;;;;24.98;44.36;100382.50;1712362;82;21928;-86
2022/09/13 00:18:03;;;;;;;1.57;1.47;;;;;;;24.97;44.37;100379.48;1709667;82;21121;-86
2022/09/13 00:20:29;;;;;;;2.20;1.40;;;;;;;24.99;44.37;100386.09;1682542;83;21167;-85
2022/09/13 00:22:56;;;;;;;2.85;1.50;;;;;;;24.98;44.34;100378.32;1655041;85;21537;-86
2022/09/13 00:25:22;;;;;;;1.50;1.25;;;;;;;24.97;44.35;100380.88;1654679;85;21001;-86
2022/09/13 00:27:54;;;;;;;1.60;1.20;;;;;;;24.97;44.35;100381.45;1682092;83;21234;-85
2022/09/13 00:30:20;;;;;;;2.10;1.30;;;;;;;24.97;44.37;100386.44;1682408;84;21574;-86
2022/09/13 00:32:47;;;;;;;3.75;1.50;;;;;;;24.97;44.37;100385.05;1682190;85;21100;-86
2022/09/13 00:35:13;;;;;;;1.60;1.30;;;;;;;24.97;44.40;100378.67;1682351;84;21084;-86
2022/09/13 00:37:40;;;;;;;1.70;1.40;;;;;;;24.97;44.39;100377.27;1682401;83;21642;-86
2022/09/13 00:40:07;;;;;;;1.50;1.30;;;;;;;24.96;44.39;100370.90;1682032;84;21552;-86
2022/09/13 00:42:33;;;;;;;2.50;1.35;;;;;;;24.97;44.39;100376.70;1682026;84;21060;-86
2022/09/13 00:45:10;;;;;;;1.82;1.20;;;;;;;24.97;44.38;100378.67;1682465;84;21048;-86
2022/09/13 00:47:53;;;;;;;2.00;1.42;;;;;;;24.98;44.37;100378.90;1682315;84;21068;-85
2022/09/13 00:50:48;;;;;;;1.60;1.27;;;;;;;24.97;44.37;100380.88;1682460;85;21032;-86
2022/09/13 00:53:32;;;;;;;2.55;1.37;;;;;;;24.96;44.35;100386.20;1682152;85;21518;-86
2022/09/13 00:56:08;;;;;;;1.52;1.35;;;;;;;24.96;44.33;100383.42;1683618;83;21896;-85
2022/09/13 00:58:48;;;;;;;1.50;1.32;;;;;;;24.95;44.33;100386.58;1683479;84;21125;-86
2022/09/13 01:01:15;;;;;;;1.92;1.55;;;;;;;24.95;44.33;100385.19;1683288;83;21081;-86
2022/09/13 01:03:41;;;;;;;1.77;1.17;;;;;;;24.95;44.36;100389.36;1683787;84;21047;-86
2022/09/13 01:06:11;;;;;;;2.20;1.47;;;;;;;24.93;44.35;100386.92;1656599;84;22213;-85
2022/09/13 01:08:39;;;;;;;2.10;1.50;;;;;;;24.94;44.36;100393.30;1683988;83;21069;-86
2022/09/13 01:11:10;;;;;;;1.62;1.20;;;;;;;24.94;44.36;100384.95;1683710;83;21069;-86
2022/09/13 01:13:36;;;;;;;1.80;1.30;;;;;;;24.93;44.35;100384.14;1677398;84;21028;-86
2022/09/13 01:16:02;;;;;;;2.40;1.40;;;;;;;24.94;44.33;100385.77;1661915;86;21122;-85
2022/09/13 01:18:29;;;;;;;1.92;1.30;;;;;;;24.93;44.33;100381.36;1640370;86;21492;-86
2022/09/13 01:21:21;;;;;;;1.52;1.22;;;;;;;24.94;44.34;100380.78;1661887;85;21078;-86
2022/09/13 01:24:11;;;;;;;2.95;1.30;;;;;;;24.93;44.33;100381.36;1661609;86;21289;-86
2022/09/13 01:26:55;;;;;;;1.70;1.20;;;;;;;24.93;44.33;100383.33;1661953;85;21094;-85
2022/09/13 01:30:01;;;;;;;2.22;1.40;;;;;;;24.93;44.34;100393.07;1661599;86;21509;-85
2022/09/13 01:33:09;;;;;;;1.60;1.30;;;;;;;24.92;44.29;100386.69;1661781;85;21098;-86
2022/09/13 01:35:56;;;;;;;2.85;1.45;;;;;;;24.91;44.30;100389.82;1661524;85;21613;-86
2022/09/13 01:38:53;;;;;;;2.15;1.45;;;;;;;24.92;44.28;100394.23;1661698;85;21102;-85
2022/09/13 01:41:25;;;;;;;2.20;1.42;;;;;;;24.90;44.29;100395.19;1661549;85;21066;-86
2022/09/13 01:44:15;;;;;;;2.12;1.30;;;;;;;24.89;44.29;100393.56;1660968;85;21023;-86
2022/09/13 01:47:08;;;;;;;2.10;1.67;;;;;;;24.88;44.30;100389.16;1661938;85;21553;-85
2022/09/13 01:50:19;;;;;;;2.02;1.25;;;;;;;24.89;44.31;100394.95;1661199;86;21055;-85
2022/09/13 01:52:51;;;;;;;;;;;;;;;24.88;44.30;100387.19;1663369;85;22356;-86
2022/09/13 01:55:32;;;;;;;1.62;1.10;;;;;;;24.87;44.29;100387.53;1661596;86;20177;-85
2022/09/13 01:58:25;;;;;;;1.70;1.27;;;;;;;24.86;44.31;100390.11;1661457;85;21031;-86
2022/09/13 02:01:00;;;;;;;1.77;1.30;;;;;;;24.86;44.32;100388.72;1661801;86;21983;-86
2022/09/13 02:03:39;;;;;;;1.82;1.12;;;;;;;24.84;44.32;100387.64;1658499;85;21087;-86
2022/09/13 02:06:10;;;;;;;1.85;1.30;;;;;;;24.85;44.32;100385.67;1669135;84;21080;-86
2022/09/13 02:08:54;;;;;;;1.92;1.30;;;;;;;24.85;44.32;100389.30;1689005;83;21097;-86
2022/09/13 02:11:21;;;;;;;1.45;1.20;;;;;;;24.85;44.35;100382.34;1689516;84;21142;-86
2022/09/13 02:14:07;;;;;;;2.00;1.50;;;;;;;24.85;44.34;100386.52;1694936;83;21525;-86
2022/09/13 02:16:48;;;;;;;3.65;1.40;;;;;;;24.86;44.33;100381.77;1712303;82;21054;-86
2022/09/13 02:19:23;;;;;;;2.15;1.30;;;;;;;24.86;44.32;100385.36;1712337;82;28452;-86
2022/09/13 02:21:53;;;;;;;2.20;1.50;;;;;;;24.86;44.30;100384.55;1712739;83;21022;-86
2022/09/13 02:24:36;;;;;;;3.02;1.47;;;;;;;24.86;44.28;100376.20;1711503;82;21034;-86
2022/09/13 02:27:07;;;;;;;2.05;1.20;;;;;;;24.85;44.29;100372.59;1712606;82;21087;-86
2022/09/13 02:29:33;;;;;;;;;;;;;;;24.87;44.29;100370.83;1686731;83;21113;-86
2022/09/13 02:32:17;;;;;;;2.37;1.30;;;;;;;24.86;44.27;100369.24;1712360;83;20224;-86
2022/09/13 02:34:51;;;;;;;3.05;1.50;;;;;;;24.85;44.33;100367.58;1712280;82;21133;-86
2022/09/13 02:37:17;;;;;;;1.65;1.20;;;;;;;24.85;44.29;100363.41;1712451;82;21042;-86
2022/09/13 02:39:48;;;;;;;2.08;1.35;;;;;;;24.85;44.28;100364.25;1661402;83;21543;-85
2022/09/13 02:42:24;;;;;;;2.47;1.50;;;;;;;24.85;44.29;100362.02;1659818;83;20978;-86
2022/09/13 02:44:52;;;;;;;1.65;1.30;;;;;;;24.84;44.27;100358.42;1712613;82;21500;-86
2022/09/13 02:47:51;;;;;;;1.85;1.27;;;;;;;24.84;44.25;100358.42;1712190;82;21097;-86
2022/09/13 02:50:49;;;;;;;1.62;1.30;;;;;;;24.85;44.26;100361.47;1708327;82;21069;-86
2022/09/13 02:53:35;;;;;;;2.87;1.30;;;;;;;24.84;44.24;100363.98;1712238;82;20970;-86
2022/09/13 02:56:32;;;;;;;2.10;1.40;;;;;;;24.84;44.21;100360.39;1705001;83;21038;-86
2022/09/13 02:59:15;;;;;;;2.12;1.37;;;;;;;24.84;44.20;100362.59;1712448;82;21142;-86
2022/09/13 03:01:44;;;;;;;1.70;1.27;;;;;;;24.84;44.16;100364.56;1706517;82;21058;-85
2022/09/13 03:04:10;;;;;;;1.70;1.30;;;;;;;24.84;44.18;100365.95;1712154;82;21037;-86
2022/09/13 03:06:37;;;;;;;1.62;1.20;;;;;;;24.84;44.19;100368.16;1684147;83;21178;-86
2022/09/13 03:09:03;;;;;;;4.70;1.35;;;;;;;24.84;44.20;100367.35;1712016;82;20974;-86
2022/09/13 03:12:13;;;;;;;2.10;1.40;;;;;;;24.84;44.21;100365.95;1712160;82;21106;-86
2022/09/13 03:15:19;;;;;;;1.75;1.20;;;;;;;24.84;44.20;100362.59;1667185;83;21062;-85
2022/09/13 03:18:21;;;;;;;2.35;1.30;;;;;;;24.84;44.20;100360.39;1706813;83;21018;-85
2022/09/13 03:21:14;;;;;;;2.20;1.30;;;;;;;24.83;44.19;100362.36;1683199;85;21761;-87
2022/09/13 03:24:10;;;;;;;3.55;1.50;;;;;;;24.82;44.16;100361.35;1647938;83;21007;-85
2022/09/13 03:26:50;;;;;;;2.65;1.32;;;;;;;24.82;44.15;100366.91;1683944;83;21109;-85
2022/09/13 03:29:42;;;;;;;2.33;1.40;;;;;;;24.82;44.16;100366.91;1683994;85;21005;-86
2022/09/13 03:32:54;;;;;;;1.80;1.37;;;;;;;24.81;44.15;100368.89;1684119;83;21496;-85
2022/09/13 03:35:43;;;;;;;1.90;1.30;;;;;;;24.81;44.17;100373.64;1683190;83;21969;-86
2022/09/13 03:38:19;;;;;;;1.60;1.32;;;;;;;24.81;44.16;100365.29;1683758;83;21615;-85
2022/09/13 03:40:54;;;;;;;2.17;1.40;;;;;;;24.80;44.15;100371.44;1683656;85;21073;-85
2022/09/13 03:43:34;;;;;;;4.78;1.35;;;;;;;24.79;44.12;100368.42;1683806;85;21140;-86
2022/09/13 03:45:58;;;;;;;2.58;1.30;;;;;;;24.81;44.14;100366.68;1656475;85;21602;-85
2022/09/13 03:48:26;;;;;;;2.17;1.30;;;;;;;24.80;44.15;100360.88;1683937;83;21168;-86
2022/09/13 03:50:53;;;;;;;2.15;1.32;;;;;;;24.81;44.16;100362.51;1683988;83;21547;-85
2022/09/13 03:53:26;;;;;;;2.90;1.40;;;;;;;24.80;44.15;100363.09;1683749;83;21058;-86
2022/09/13 03:55:53;;;;;;;3.37;1.50;;;;;;;24.81;44.15;100366.68;1673015;83;21109;-88
2022/09/13 03:58:20;;;;;;;4.20;1.70;;;;;;;24.81;44.11;100361.12;1712655;82;21018;-85
2022/09/13 04:00:46;;;;;;;3.08;1.60;;;;;;;24.81;44.04;100366.68;1712238;82;21957;-86
2022/09/13 04:03:14;;;;;;;3.45;1.60;;;;;;;24.80;43.96;100370.05;1712445;82;21101;-87
2022/09/13 04:05:40;;;;;;;2.95;1.60;;;;;;;24.78;43.91;100360.45;1712102;82;21113;-84
2022/09/13 04:08:07;;;;;;;6.20;2.12;;;;;;;24.77;43.86;100366.59;1711711;82;21034;-89
2022/09/13 04:10:36;;;;;;;5.35;2.20;;;;;;;24.76;43.78;100364.16;1712197;82;21050;-89
2022/09/13 04:13:03;;;;;;;6.70;2.45;;;;;;;24.72;43.54;100366.03;1712376;82;21879;-89
2022/09/13 04:15:32;;;;;;;6.00;2.75;;;;;;;24.65;43.24;100363.06;1701863;82;21152;-89
2022/09/13 04:17:58;;;;;;;6.33;2.80;;;;;;;24.55;43.03;100361.60;1654192;83;21085;-89
2022/09/13 04:20:25;;;;;;;7.33;2.72;;;;;;;24.42;42.88;100352.50;1689572;84;21082;-90
2022/09/13 04:22:52;;;;;;;5.95;2.87;;;;;;;24.33;42.78;100357.41;1677494;84;21175;-89
2022/09/13 04:25:25;;;;;;;5.53;2.55;;;;;;;24.24;42.69;100357.31;1689730;83;21255;-89
2022/09/13 04:27:55;;;;;;;7.42;2.75;;;;;;;24.15;42.63;100356.07;1669562;85;20993;-89
2022/09/13 04:30:22;;;;;;;4.12;2.42;;;;;;;24.10;42.56;100366.04;1657882;84;21023;-88
2022/09/13 04:32:48;;;;;;;9.90;2.70;;;;;;;24.04;42.47;100368.82;1639032;86;21036;-88
2022/09/13 04:35:18;;;;;;;5.28;2.60;;;;;;;24.00;42.42;100369.30;1660511;84;21037;-90
2022/09/13 04:37:45;;;;;;;6.47;2.45;;;;;;;23.91;42.36;100369.43;1663641;84;22202;-86
2022/09/13 04:40:11;;;;;;;7.97;3.17;;;;;;;23.84;42.36;100368.41;1689044;83;21587;-85
2022/09/13 04:42:40;;;;;;;5.45;3.95;;;;;;;23.78;42.42;100369.80;1665005;84;21095;-95
2022/09/13 04:45:07;;;;;;;9.28;5.83;;;;;;;23.73;42.37;100363.89;1665857;83;21062;-88
2022/09/13 04:47:34;;;;;;;14.70;8.43;;;;;;;23.64;42.33;100369.58;1624119;85;21086;-91
2022/09/13 04:50:00;;;;;;;21.85;10.55;;;;;;;23.55;42.41;100367.50;1663924;83;21912;-87
2022/09/13 04:52:29;;;;;;;22.48;10.88;;;;;;;23.50;42.40;100367.75;1662784;83;21161;-87
2022/09/13 04:54:59;;;;;;;18.77;9.08;;;;;;;23.45;42.50;100380.47;1661864;83;21051;-91
2022/09/13 04:57:27;;;;;;;17.17;9.45;;;;;;;23.32;42.46;100376.61;1674594;83;21078;-86
2022/09/13 04:59:53;;;;;;;26.10;9.75;;;;;;;23.26;42.73;100372.44;1664245;83;21903;-87
2022/09/13 05:02:19;;;;;;;22.35;9.30;;;;;;;23.25;42.81;100375.00;1683347;83;21533;-91
2022/09/13 05:04:46;;;;;;;20.15;9.30;;;;;;;23.26;42.93;100376.59;1662260;83;21115;-88
2022/09/13 05:07:12;;;;;;;20.08;8.30;;;;;;;23.29;42.93;100382.30;1664725;83;21177;-84
2022/09/13 05:09:38;;;;;;;21.80;7.92;;;;;;;23.33;42.91;100381.02;1660707;83;21517;-87
2022/09/13 05:12:05;;;;;;;17.20;7.12;;;;;;;23.40;42.89;100384.83;1668831;83;21081;-89
2022/09/13 05:14:37;;;;;;;16.42;8.50;;;;;;;23.50;42.86;100387.77;1660975;82;22054;-88
2022/09/13 05:17:04;;;;;;;13.38;5.85;;;;;;;23.56;42.77;100378.02;1615534;86;21657;-89
2022/09/13 05:19:30;;;;;;;14.03;5.62;;;;;;;23.65;42.66;100386.48;1652634;85;21563;-87
2022/09/13 05:21:56;;;;;;;12.10;5.75;;;;;;;23.71;42.56;100389.02;1653121;85;21043;-88
2022/09/13 05:24:23;;;;;;;13.53;6.10;;;;;;;23.76;42.47;100387.41;1655868;84;21036;-87
2022/09/13 05:26:51;;;;;;;14.15;6.10;;;;;;;23.81;42.38;100392.70;1647127;84;21525;-87
2022/09/13 05:29:17;;;;;;;14.05;5.67;;;;;;;23.81;42.25;100390.73;1651746;85;21079;-88
2022/09/13 05:31:44;;;;;;;13.03;5.85;;;;;;;23.82;42.25;100393.75;1647684;84;21086;-88
2022/09/13 05:34:14;;;;;;;12.35;5.22;;;;;;;23.84;42.26;100391.45;1672396;84;21080;-89
2022/09/13 05:36:40;;;;;;;12.57;4.47;;;;;;;23.88;42.42;100399.89;1659752;83;21090;-89
2022/09/13 05:39:12;;;;;;;8.83;3.80;;;;;;;23.91;42.36;100391.66;1657657;84;21134;-86
2022/09/13 05:41:39;;;;;;;8.33;4.00;;;;;;;23.93;42.33;100389.93;1654084;84;21631;-87
2022/09/13 05:44:05;;;;;;;10.60;3.60;;;;;;;23.96;42.28;100389.22;1657483;84;21411;-88
2022/09/13 05:46:32;;;;;;;8.45;3.50;;;;;;;23.98;42.22;100393.83;1639142;85;21593;-88
2022/09/13 05:48:58;;;;;;;8.05;2.98;;;;;;;23.97;42.16;100385.29;1649961;84;22102;-87
2022/09/13 05:51:25;;;;;;;9.10;3.45;;;;;;;23.93;42.12;100382.98;1663353;84;21170;-88
2022/09/13 05:53:53;;;;;;;10.18;3.17;;;;;;;23.86;42.16;100384.94;1663626;83;21489;-86
2022/09/13 05:56:24;;;;;;;10.20;3.15;;;;;;;23.79;42.22;100381.95;1661069;83;21651;-86
2022/09/13 05:58:51;;;;;;;11.18;3.62;;;;;;;23.77;42.41;100390.39;1667416;85;21023;-85
2022/09/13 06:01:22;;;;;;;10.18;3.75;;;;;;;23.78;42.62;100395.61;1659852;84;21104;-85
2022/09/13 06:03:50;;;;;;;17.60;3.33;;;;;;;23.80;42.79;100396.08;1633228;85;22092;-85
2022/09/13 06:06:16;;;;;;;16.07;3.10;;;;;;;23.80;42.91;100391.92;1654055;84;21074;-86
2022/09/13 06:08:43;;;;;;;18.35;3.17;;;;;;;23.80;42.90;100396.66;1660758;84;21091;-88
2022/09/13 06:11:10;;;;;;;13.45;3.02;;;;;;;23.79;42.92;100401.40;1665659;83;21102;-86
2022/09/13 06:13:37;;;;;;;11.90;2.80;;;;;;;23.81;42.91;100396.29;1662094;83;21070;-86
2022/09/13 06:16:06;;;;;;;4.95;2.87;;;;;;;23.82;42.83;100397.10;1670451;83;21110;-86
2022/09/13 06:18:33;;;;;;;8.53;2.70;;;;;;;23.85;42.77;100404.77;1666648;83;21494;-86
2022/09/13 06:21:16;;;;;;;6.35;2.37;;;;;;;23.86;42.64;100406.36;1668123;84;21115;-88
2022/09/13 06:23:40;;;;;;;7.30;2.27;;;;;;;23.86;42.57;100404.97;1660349;84;21068;-88
2022/09/13 06:26:09;;;;;;;4.83;2.30;;;;;;;23.86;42.50;100402.19;1654036;84;21239;-91
2022/09/13 06:28:35;;;;;;;6.05;3.45;;;;;;;23.86;42.49;100407.75;1671530;83;22066;-90
2022/09/13 06:31:09;;;;;;;5.55;2.80;;;;;;;23.88;42.42;100403.48;1661636;84;21062;-92
2022/09/13 06:33:37;;;;;;;4.30;2.62;;;;;;;23.91;42.33;100407.52;1654591;84;21119;-87
2022/09/13 06:36:06;;;;;;;3.35;2.22;;;;;;;23.92;42.28;100409.95;1664118;84;21059;-88
2022/09/13 06:38:32;;;;;;;5.47;2.15;;;;;;;23.94;42.21;100413.75;1664789;84;21089;-87
2022/09/13 06:41:03;;;;;;;5.42;2.30;;;;;;;23.95;42.16;100420.36;1664168;84;22703;-88
2022/09/13 06:43:29;;;;;;;5.45;2.40;;;;;;;23.95;42.12;100413.99;1660958;83;21549;-88
2022/09/13 06:46:07;;;;;;;4.37;2.37;;;;;;;23.93;42.14;100418.50;1671185;84;21073;-90
2022/09/13 06:48:41;;;;;;;6.12;2.45;;;;;;;23.93;42.21;100417.72;1662028;84;21003;-86
2022/09/13 06:51:14;;;;;;;9.68;2.40;;;;;;;23.95;42.46;100426.49;1667040;83;21995;-88
2022/09/13 06:53:40;;;;;;;10.43;2.08;;;;;;;23.95;42.58;100425.11;1660995;84;21195;-82
2022/09/13 06:56:18;;;;;;;12.50;2.47;;;;;;;23.94;42.75;100424.30;1682020;83;21235;-87
2022/09/13 06:58:47;;;;;;;10.32;2.50;;;;;;;23.94;42.86;100421.52;1666837;84;21097;-89
2022/09/13 07:01:31;;;;;;;15.30;2.90;;;;;;;23.94;42.94;100431.81;1659451;83;21343;-89
2022/09/13 07:04:12;;;;;;;9.48;2.70;;;;;;;23.91;43.11;100429.16;1658211;84;21113;-88
2022/09/13 07:06:42;;;;;;;14.20;3.25;;;;;;;23.91;43.28;100428.35;1682140;83;21880;-89
2022/09/13 07:09:13;;;;;;;7.83;2.00;;;;;;;23.89;43.35;100430.69;1653680;84;21066;-88
2022/09/13 07:11:40;;;;;;;9.88;2.80;;;;;;;23.91;43.38;100432.52;1660884;83;21014;-86
2022/09/13 07:14:07;;;;;;;10.53;2.30;;;;;;;23.92;43.30;100429.41;1667308;83;21107;-89
2022/09/13 07:16:36;;;;;;;5.50;2.35;;;;;;;23.93;43.21;100432.39;1645339;85;21141;-86
2022/09/13 07:19:09;;;;;;;6.45;2.58;;;;;;;23.92;43.15;100435.53;1659237;85;21755;-88
2022/09/13 07:21:41;;;;;;;9.88;2.75;;;;;;;23.91;43.06;100429.16;1659063;85;21896;-88
2022/09/13 07:24:08;;;;;;;9.20;2.72;;;;;;;23.90;42.99;100428.92;1656880;85;21102;-87
2022/09/13 07:26:34;;;;;;;7.00;2.40;;;;;;;23.88;42.92;100434.04;1665881;84;21000;-87
2022/09/13 07:29:03;;;;;;;7.67;2.20;;;;;;;23.89;42.83;100425.12;1654964;84;21169;-87
2022/09/13 07:31:33;;;;;;;5.62;2.22;;;;;;;23.88;42.76;100427.67;1670992;84;21666;-85
2022/09/13 07:34:01;;;;;;;6.60;2.10;;;;;;;23.88;42.67;100425.70;1665905;84;21369;-86
2022/09/13 07:36:29;;;;;;;4.03;1.90;;;;;;;23.85;42.56;100416.66;1670525;83;21033;-86
2022/09/13 07:38:56;;;;;;;5.28;2.33;;;;;;;23.88;42.53;100422.11;1666454;84;21095;-87
2022/09/13 07:41:24;;;;;;;7.00;2.17;;;;;;;23.87;42.46;100417.13;1660529;83;21146;-86
2022/09/13 07:43:53;;;;;;;8.10;2.85;;;;;;;23.87;42.43;100421.88;1651877;83;21527;-86
2022/09/13 07:46:23;;;;;;;7.62;2.77;;;;;;;23.88;42.49;100423.50;1661157;84;21283;-87
2022/09/13 07:48:52;;;;;;;8.80;2.85;;;;;;;23.89;42.46;100418.19;1650082;84;33127;-85
2022/09/13 07:51:21;;;;;;;9.03;2.67;;;;;;;23.91;42.49;100413.07;1646869;85;21358;-87
2022/09/13 07:53:54;;;;;;;15.78;3.20;;;;;;;23.91;42.71;100415.27;1666969;83;21077;-88
2022/09/13 07:56:54;;;;;;;13.85;3.37;;;;;;;23.94;42.87;100413.75;1672419;83;21296;-84
2022/09/13 07:59:15;;;;;;;14.58;3.15;;;;;;;23.97;43.15;100413.89;1659846;82;21055;-87
2022/09/13 08:01:46;;;;;;;17.55;4.17;;;;;;;24.02;43.47;100418.37;1679047;82;21147;-87
2022/09/13 08:04:16;;;;;;;14.98;3.70;;;;;;;24.06;43.97;100419.31;1659731;83;21111;-87
2022/09/13 08:06:43;;;;;;;20.35;4.67;;;;;;;24.08;44.03;100422.54;1657109;83;21373;-86
2022/09/13 08:09:11;;;;;;;16.12;4.10;;;;;;;24.10;44.29;100414.06;1664409;84;21878;-86
2022/09/13 08:11:43;;;;;;;11.38;3.75;;;;;;;24.14;44.37;100418.38;1660476;83;21065;-86
2022/09/13 08:14:12;;;;;;;14.85;4.45;;;;;;;24.16;44.34;100412.47;1658992;83;21121;-86
2022/09/13 08:16:38;;;;;;;9.65;3.87;;;;;;;24.18;44.36;100411.55;1675106;83;21589;-85
2022/09/13 08:19:06;;;;;;;10.90;3.00;;;;;;;24.21;44.31;100416.41;1654013;85;21119;-86
2022/09/13 08:21:35;;;;;;;11.25;2.72;;;;;;;24.20;43.96;100412.81;1662605;84;21166;-88
2022/09/13 08:24:03;;;;;;;10.23;2.77;;;;;;;24.20;43.83;100407.83;1632094;85;21182;-94
2022/09/13 08:26:30;;;;;;;10.20;2.70;;;;;;;24.20;43.72;100403.66;1637078;85;21707;-89
2022/09/13 08:28:58;;;;;;;9.08;3.55;;;;;;;24.20;43.51;100400.88;1657201;84;21072;-87
2022/09/13 08:31:25;;;;;;;4.60;2.70;;;;;;;24.20;43.49;100405.05;1653652;84;21172;-87
2022/09/13 08:33:52;;;;;;;14.75;3.37;;;;;;;24.21;43.36;100397.76;1644779;85;21156;-83
2022/09/13 08:36:25;;;;;;;6.83;2.40;;;;;;;24.23;43.30;100395.42;1673664;84;21119;-86
2022/09/13 08:38:59;;;;;;;13.08;2.98;;;;;;;24.24;43.35;100394.27;1657587;84;21164;-89
2022/09/13 08:41:51;;;;;;;9.70;2.58;;;;;;;24.26;43.61;100398.91;1648770;83;21060;-88
2022/09/13 08:44:35;;;;;;;14.80;2.27;;;;;;;24.28;43.57;100396.57;1652816;84;21086;-84
2022/09/13 08:47:53;;;;;;;8.50;2.50;;;;;;;24.29;43.66;100393.21;1646168;84;21599;-92
2022/09/13 08:50:46;;;;;;;11.53;1.92;;;;;;;24.25;43.48;100394.50;1653383;84;22081;-87
2022/09/13 08:53:35;;;;;;;16.73;2.30;;;;;;;24.18;43.18;100378.20;1651871;83;21064;-89
2022/09/13 08:56:21;;;;;;;8.63;2.80;;;;;;;24.16;43.46;100381.33;1552645;88;21270;-86
2022/09/13 08:59:17;;;;;;;9.08;2.40;;;;;;;24.18;43.60;100380.41;1599838;86;21230;-89
2022/09/13 09:02:40;;;;;;;3.45;1.75;;;;;;;24.20;43.90;100377.25;1597901;86;21133;-88
2022/09/13 09:05:35;;;;;;;10.72;2.20;;;;;;;24.22;43.84;100373.55;1609678;83;21191;-89
2022/09/13 09:08:11;;;;;;;8.68;2.50;;;;;;;24.18;43.50;100362.34;1662245;83;21123;-86
2022/09/13 09:10:46;;;;;;;9.25;2.10;;;;;;;24.18;43.53;100360.95;1662820;84;21073;-86
2022/09/13 09:13:35;;;;;;;3.58;1.60;;;;;;;24.19;43.49;100356.98;1658709;84;21170;-86
2022/09/13 09:16:26;;;;;;;9.78;2.00;;;;;;;24.24;43.10;100364.27;1667525;83;21292;-84
2022/09/13 09:18:52;;;;;;;8.60;1.80;;;;;;;24.24;42.57;100361.48;1683566;83;21601;-85
2022/09/13 09:21:19;;;;;;;2.47;1.72;;;;;;;24.25;42.33;100356.16;1684101;82;21586;-86
2022/09/13 09:23:53;;;;;;;2.67;1.70;;;;;;;24.25;41.94;100348.64;1671648;83;21101;-87
2022/09/13 09:26:31;;;;;;;4.83;1.75;;;;;;;24.26;41.63;100346.09;1684155;82;21102;-86
2022/09/13 09:29:02;;;;;;;5.97;2.08;;;;;;;24.28;41.76;100350.70;1664145;84;21149;-85
2022/09/13 09:31:37;;;;;;;2.87;1.55;;;;;;;24.30;41.65;100345.61;1656980;83;21083;-87
2022/09/13 09:34:50;;;;;;;2.90;1.70;;;;;;;24.30;41.52;100344.22;1624757;85;21071;-86
2022/09/13 09:37:33;;;;;;;3.55;1.70;;;;;;;24.32;41.24;100346.05;1652036;85;21950;-87
2022/09/13 09:40:03;;;;;;;4.90;1.67;;;;;;;24.31;40.81;100343.64;1652179;84;21165;-86
2022/09/13 09:42:33;;;;;;;3.40;1.30;;;;;;;24.31;40.55;100340.86;1651605;84;21232;-86
2022/09/13 09:45:27;;;;;;;;;;;;;;;24.31;40.30;100340.86;1652391;84;21154;-86
2022/09/13 09:48:08;;;;;;;3.50;1.20;;;;;;;24.30;39.83;100340.62;1663975;84;20265;-88
2022/09/13 09:50:42;;;;;;;6.15;1.60;;;;;;;24.30;40.21;100339.23;1673606;84;22013;-91
2022/09/13 09:53:28;;;;;;;8.85;1.50;;;;;;;24.30;39.94;100333.09;1645659;84;21119;-90
2022/09/13 09:56:03;;;;;;;9.48;2.37;;;;;;;24.30;39.89;100336.45;1647777;84;21721;-83
2022/09/13 09:58:42;;;;;;;15.38;2.27;;;;;;;24.32;40.40;100329.36;1659285;83;21139;-89
2022/09/13 10:01:31;;;;;;;11.95;2.12;;;;;;;24.36;40.61;100328.88;1661830;83;21144;-86
2022/09/13 10:04:15;;;;;;;7.70;1.90;;;;;;;24.37;40.65;100323.56;1659847;83;21591;-85
2022/09/13 10:06:42;;;;;;;9.95;2.30;;;;;;;24.42;40.66;100325.28;1657606;84;21901;-87
2022/09/13 10:09:17;;;;;;;6.50;2.15;;;;;;;24.40;40.33;100324.23;1645973;84;21279;-88
2022/09/13 10:11:58;;;;;;;8.65;1.85;;;;;;;24.41;40.28;100320.30;1655045;84;21298;-87
2022/09/13 10:14:45;;;;;;;2.72;1.72;;;;;;;24.43;40.07;100319.95;1658279;84;21098;-87
2022/09/13 10:17:26;;;;;;;5.62;2.75;;;;;;;24.41;39.77;100320.30;1655657;83;21086;-88
2022/09/13 10:20:00;;;;;;;4.50;1.52;;;;;;;24.42;39.60;100323.89;1660146;84;21276;-86
2022/09/13 10:22:28;;;;;;;4.03;1.67;;;;;;;24.42;39.44;100318.33;1634131;84;21258;-86
2022/09/13 10:24:54;;;;;;;7.72;1.55;;;;;;;24.39;39.13;100315.69;1631394;84;21101;-85
2022/09/13 10:27:29;;;;;;;5.78;1.55;;;;;;;24.39;38.99;100307.92;1668798;83;21098;-86
2022/09/13 10:29:58;;;;;;;3.22;1.40;;;;;;;24.38;38.86;100309.89;1656193;84;21097;-85
2022/09/13 10:32:26;;;;;;;3.40;1.65;;;;;;;24.38;38.73;100313.25;1656336;84;21072;-85
2022/09/13 10:34:55;;;;;;;4.97;1.80;;;;;;;24.39;38.66;100309.31;1665293;84;21874;-85
2022/09/13 10:37:30;;;;;;;4.72;1.80;;;;;;;24.39;38.53;100307.92;1659686;85;21062;-86
2022/09/13 10:40:08;;;;;;;2.98;1.60;;;;;;;24.39;38.45;100300.39;1660101;84;21653;-87
2022/09/13 10:42:45;;;;;;;3.98;1.57;;;;;;;24.40;38.45;100297.03;1654243;84;21238;-87
2022/09/13 10:45:16;;;;;;;3.45;1.55;;;;;;;24.40;38.35;100301.98;1652738;84;21514;-86
2022/09/13 10:48:04;;;;;;;2.90;1.60;;;;;;;24.40;38.35;100300.59;1654865;84;22162;-88
2022/09/13 10:50:32;;;;;;;7.60;2.70;;;;;;;24.40;38.33;100294.25;1623939;85;21249;-87
2022/09/13 10:53:02;;;;;;;10.28;4.25;;;;;;;24.40;38.28;100297.81;1645623;85;21141;-88
2022/09/13 10:55:39;;;;;;;16.62;3.80;;;;;;;24.40;38.48;100288.08;1651277;84;21072;-87
2022/09/13 10:58:12;;;;;;;12.53;3.00;;;;;;;24.42;38.97;100284.37;1658609;84;21180;-87
2022/09/13 11:00:47;;;;;;;12.35;2.40;;;;;;;24.46;39.33;100276.12;1661444;84;21338;-91
2022/09/13 11:04:05;;;;;;;11.85;2.02;;;;;;;24.48;39.38;100277.41;1657679;84;21081;-86
2022/09/13 11:06:46;;;;;;;6.37;1.85;;;;;;;24.51;39.37;100278.66;1665006;84;21105;-86
2022/09/13 11:09:37;;;;;;;10.68;3.25;;;;;;;24.50;39.28;100284.80;1661077;84;21115;-88
2022/09/13 11:12:56;;;;;;;9.35;2.75;;;;;;;24.50;39.33;100278.42;1690028;84;21134;-88
2022/09/13 11:15:55;;;;;;;11.97;3.05;;;;;;;24.52;39.14;100276.11;1644872;84;21612;-91
2022/09/13 11:18:58;;;;;;;17.05;3.85;;;;;;;24.51;38.89;100274.48;1682098;83;21627;-88
2022/09/13 11:21:42;;;;;;;13.95;3.05;;;;;;;24.50;38.73;100279.81;1669302;83;21219;-87
2022/09/13 11:24:32;;;;;;;14.95;3.10;;;;;;;24.50;38.71;100275.06;1677045;83;21096;-88
2022/09/13 11:27:16;;;;;;;7.47;2.98;;;;;;;24.51;38.55;100275.30;1676101;83;21745;-87
2022/09/13 11:30:25;;;;;;;8.80;2.40;;;;;;;24.50;38.40;100275.06;1703924;83;21044;-88
2022/09/13 11:33:46;;;;;;;15.10;3.05;;;;;;;24.50;38.34;100269.50;1684448;83;21714;-82
2022/09/13 11:36:54;;;;;;;3.02;1.70;;;;;;;24.50;38.31;100266.72;1682108;83;21092;-81
2022/09/13 11:39:56;;;;;;;5.75;2.12;;;;;;;24.49;38.24;100263.70;1673936;83;21671;-82
2022/09/13 11:43:07;;;;;;;5.45;1.55;;;;;;;24.50;38.22;100266.72;1685469;83;21638;-81
2022/09/13 11:45:51;;;;;;;4.87;1.70;;;;;;;24.51;38.38;100264.17;1682094;83;21564;-83
2022/09/13 11:48:23;;;;;;;3.77;1.90;;;;;;;24.53;38.45;100259.05;1689697;82;21085;-81
2022/09/13 11:51:13;;;;;;;4.05;2.42;;;;;;;24.52;38.26;100257.45;1704270;81;21682;-81
2022/09/13 11:53:57;;;;;;;9.25;3.77;;;;;;;24.53;37.96;100257.66;1607779;86;21666;-80
2022/09/13 11:56:33;;;;;;;6.30;2.47;;;;;;;24.51;38.07;100255.83;1666007;84;21181;-80
2022/09/13 11:59:14;;;;;;;9.28;2.35;;;;;;;24.51;38.29;100257.22;1672784;83;21336;-79
2022/09/13 12:01:48;;;;;;;11.85;2.58;;;;;;;24.53;38.49;100252.09;1682971;83;21668;-79
2022/09/13 12:04:26;;;;;;;17.23;2.25;;;;;;;24.56;38.73;100258.34;1678748;83;21254;-80